Hatsu Smart — MLBD9 — position and weather

sailwx.info

Track history (hours):
 
Tides and Currents Weather Stations Pressure Air Temp Water Temp Dewpoint Dewpoint Depression Visibility Wind Speed Wind Dir Waves Ship Positions

Hatsu Smart

Last reported at 2017-Dec-07 01:37 UTC. Time now 2017-Dec-18 05:23 UTC.
Position N 25°38' E 121°41'.
Warning: this ship's position is 11 days out of date.

Type: Ship. MMSI: 235010450.

Date/timePositionNaut miles runAvg speedWind from/ knotsBaromVisibWave heightAir tempDewpointWater temp
2017-Dec-07 01:37N 25°38' E 121°41'217.0
2017-Dec-07 01:30N 25°37' E 121°39'917.6
2017-Dec-07 01:01N 25°31' E 121°33'917.2
2017-Dec-07 00:30N 25°24' E 121°26'816.2
2017-Dec-07 00:00N 25°19' E 121°20'612.1
2017-Dec-06 23:30N 25°13' E 121°18'510.9
2017-Dec-06 23:00N 25°09' E 121°22'1 2.5
2017-Dec-06 22:30N 25°10' E 121°23'0 0.0
2017-Dec-06 21:54N 25°10' E 121°23'0 0.0
2017-Dec-06 21:30N 25°10' E 121°23'0 0.0
2017-Dec-06 20:57N 25°10' E 121°23'  
2017-Dec-03 22:58N 22°20' E 114°07'1 0.8
2017-Dec-03 22:18N 22°20' E 114°08'0 0.0
2017-Dec-03 21:54N 22°20' E 114°08'0 0.0
2017-Dec-03 21:24N 22°20' E 114°08'0 0.0
2017-Dec-03 17:42N 22°20' E 114°08'0 0.0
2017-Dec-03 17:24N 22°20' E 114°08'0 0.0
2017-Dec-03 16:54N 22°20' E 114°08'0 0.0
2017-Dec-03 14:30N 22°20' E 114°08'0 0.1
2017-Dec-03 14:00N 22°20' E 114°08'0 0.0
2017-Dec-03 13:09N 22°20' E 114°08'0 0.0
2017-Dec-03 12:45N 22°20' E 114°08'0 0.0
2017-Dec-03 12:30N 22°20' E 114°08'0 0.0
2017-Dec-03 12:00N 22°20' E 114°08'0 0.0
2017-Dec-03 11:24N 22°20' E 114°08'0 0.0
2017-Dec-03 11:00N 22°20' E 114°08'0 0.0
2017-Dec-03 10:30N 22°20' E 114°08'0 0.0
2017-Dec-03 09:18N 22°20' E 114°08'0 0.0
2017-Dec-03 08:42N 22°20' E 114°08'0 0.0
2017-Dec-03 08:30N 22°20' E 114°08'0 0.1
2017-Dec-03 08:00N 22°20' E 114°08'0 0.1
2017-Dec-03 07:06N 22°20' E 114°08'0 0.2
2017-Dec-03 07:00N 22°20' E 114°08'317 8.2
2017-Dec-01 16:04N 22°28' E 119°51'218.0
2017-Dec-01 15:59N 22°28' E 119°53'817.8
2017-Dec-01 15:31N 22°31' E 120°02'917.5
2017-Dec-01 15:00N 22°33' E 120°11'714.8
2017-Dec-01 14:30N 22°33' E 120°19'1 2.0
2017-Dec-01 14:00N 22°33' E 120°20'0 0.3
2017-Dec-01 13:28N 22°33' E 120°20'0 0.0
2017-Dec-01 13:01N 22°33' E 120°20'0 0.0
2017-Dec-01 12:30N 22°33' E 120°20'0 0.0
2017-Dec-01 12:00N 22°33' E 120°20'0 0.0
2017-Dec-01 11:30N 22°33' E 120°20'0 0.0
2017-Dec-01 11:00N 22°33' E 120°20'0 0.0
2017-Dec-01 10:27N 22°33' E 120°20'0 0.0
2017-Dec-01 10:00N 22°33' E 120°20'0 0.0
2017-Dec-01 09:31N 22°33' E 120°20'0 0.0
2017-Dec-01 09:01N 22°33' E 120°20'0 0.0
2017-Dec-01 08:28N 22°33' E 120°20'0 0.0
2017-Dec-01 07:55N 22°33' E 120°20'0 0.0
2017-Dec-01 07:30N 22°33' E 120°20'0 0.0
2017-Dec-01 06:57N 22°33' E 120°20'0 0.0
2017-Dec-01 06:24N 22°33' E 120°20'0 0.0
2017-Dec-01 06:01N 22°33' E 120°20'0 0.0
2017-Dec-01 05:30N 22°33' E 120°20'0 0.0
2017-Dec-01 05:00N 22°33' E 120°20'0 0.0
2017-Dec-01 04:30N 22°33' E 120°20'0 0.0
2017-Dec-01 04:00N 22°33' E 120°20'0 0.0
2017-Dec-01 03:30N 22°33' E 120°20'0 0.0
2017-Dec-01 03:00N 22°33' E 120°20'0 0.0
2017-Dec-01 02:30N 22°33' E 120°20'0 0.0
2017-Dec-01 02:00N 22°33' E 120°20'0 0.0
2017-Dec-01 01:30N 22°33' E 120°20'0 0.0
2017-Dec-01 01:00N 22°33' E 120°20'0 0.0
2017-Dec-01 00:27N 22°33' E 120°20'0 0.0
2017-Dec-01 00:01N 22°33' E 120°20'0 0.0
2017-Nov-30 23:19N 22°33' E 120°20'0 1.1
2017-Nov-30 23:00N 22°33' E 120°19'3 5.9
2017-Nov-30 22:30N 22°33' E 120°16'4 7.9
2017-Nov-30 22:00N 22°31' E 120°12'3 6.0
2017-Nov-30 21:31N 22°34' E 120°10'917.7
2017-Nov-30 21:00N 22°42' E 120°06'1019.1
2017-Nov-30 20:30N 22°50' E 120°01'918.9
2017-Nov-30 20:00N 22°58' E 119°56'1020.1
2017-Nov-30 19:30N 23°08' E 119°55'1120.8
2017-Nov-30 19:00N 23°19' E 119°54'1121.5
2017-Nov-30 18:30N 23°29' E 119°54'1121.6
2017-Nov-30 18:01N 23°40' E 119°55'10120.2
2017-Nov-30 13:01N 25°07' E 120°51'017.3
2017-Nov-30 13:00N 25°07' E 120°51'1019.8
2017-Nov-30 12:30N 25°13' E 121°00'917.9
2017-Nov-30 12:00N 25°16' E 121°10'714.4
2017-Nov-30 11:30N 25°14' E 121°17'611.9
2017-Nov-30 11:00N 25°09' E 121°21'1 1.7
2017-Nov-30 10:08N 25°10' E 121°23'0 0.0
2017-Nov-30 06:41N 25°10' E 121°23'0 0.0
2017-Nov-30 06:23N 25°10' E 121°23'0 0.0
2017-Nov-30 05:41N 25°10' E 121°23'0 0.0
2017-Nov-30 05:29N 25°10' E 121°23'0 0.1
2017-Nov-30 04:53N 25°10' E 121°23'0 0.1
2017-Nov-30 04:20N 25°10' E 121°23'0 0.0
2017-Nov-30 03:59N 25°10' E 121°23'0 0.0
2017-Nov-30 03:29N 25°10' E 121°23'0 0.0
2017-Nov-30 02:59N 25°10' E 121°23'0 0.0
2017-Nov-30 02:29N 25°10' E 121°23'0 0.1
2017-Nov-30 01:56N 25°10' E 121°23'0 0.1
2017-Nov-30 01:23N 25°10' E 121°23'0 0.0
2017-Nov-30 00:59N 25°10' E 121°23'0 0.0
2017-Nov-30 00:29N 25°10' E 121°23'0 0.0
2017-Nov-29 23:53N 25°10' E 121°23'0 0.9
2017-Nov-29 23:30N 25°09' E 121°23'2 4.4
2017-Nov-29 23:00N 25°09' E 121°20'5 9.2
2017-Nov-29 22:30N 25°13' E 121°17'4 7.5
2017-Nov-29 22:00N 25°16' E 121°15'917.6
2017-Nov-29 21:29N 25°23' E 121°21'68119.9
2017-Nov-28 11:19N 34°07' E 129°43'718.3
2017-Nov-28 10:57N 34°11' E 129°49'818.9
2017-Nov-28 10:30N 34°16' E 129°57'919.1
2017-Nov-28 10:00N 34°22' E 130°06'1019.2
2017-Nov-28 09:31N 34°28' E 130°15'1019.2
2017-Nov-28 09:00N 34°35' E 130°24'1018.9
2017-Nov-28 08:29N 34°41' E 130°33'919.3
2017-Nov-28 08:00N 34°48' E 130°41'59519.7
2017-Nov-27 01:54N 41°18' E 140°11'  
Track history (hours):
 
Tides and Currents Weather Stations Pressure Air Temp Water Temp Dewpoint Dewpoint Depression Visibility Wind Speed Wind Dir Waves Ship Positions

Hatsu Smart

Last reported at 2017-Dec-07 01:37 UTC. Time now 2017-Dec-18 05:23 UTC.
Position N 25°38' E 121°41'.
Warning: this ship's position is 11 days out of date.

Type: Ship. MMSI: 235010450.

Date/timePositionNaut miles runAvg speedWind from/ knotsBaromVisibWave heightAir tempDewpointWater temp
2017-Dec-07 01:37N 25°38' E 121°41'217.0
2017-Dec-07 01:30N 25°37' E 121°39'917.6
2017-Dec-07 01:01N 25°31' E 121°33'917.2
2017-Dec-07 00:30N 25°24' E 121°26'816.2
2017-Dec-07 00:00N 25°19' E 121°20'612.1
2017-Dec-06 23:30N 25°13' E 121°18'510.9
2017-Dec-06 23:00N 25°09' E 121°22'1 2.5
2017-Dec-06 22:30N 25°10' E 121°23'0 0.0
2017-Dec-06 21:54N 25°10' E 121°23'0 0.0
2017-Dec-06 21:30N 25°10' E 121°23'0 0.0
2017-Dec-06 20:57N 25°10' E 121°23'  
2017-Dec-03 22:58N 22°20' E 114°07'1 0.8
2017-Dec-03 22:18N 22°20' E 114°08'0 0.0
2017-Dec-03 21:54N 22°20' E 114°08'0 0.0
2017-Dec-03 21:24N 22°20' E 114°08'0 0.0
2017-Dec-03 17:42N 22°20' E 114°08'0 0.0
2017-Dec-03 17:24N 22°20' E 114°08'0 0.0
2017-Dec-03 16:54N 22°20' E 114°08'0 0.0
2017-Dec-03 14:30N 22°20' E 114°08'0 0.1
2017-Dec-03 14:00N 22°20' E 114°08'0 0.0
2017-Dec-03 13:09N 22°20' E 114°08'0 0.0
2017-Dec-03 12:45N 22°20' E 114°08'0 0.0
2017-Dec-03 12:30N 22°20' E 114°08'0 0.0
2017-Dec-03 12:00N 22°20' E 114°08'0 0.0
2017-Dec-03 11:24N 22°20' E 114°08'0 0.0
2017-Dec-03 11:00N 22°20' E 114°08'0 0.0
2017-Dec-03 10:30N 22°20' E 114°08'0 0.0
2017-Dec-03 09:18N 22°20' E 114°08'0 0.0
2017-Dec-03 08:42N 22°20' E 114°08'0 0.0
2017-Dec-03 08:30N 22°20' E 114°08'0 0.1
2017-Dec-03 08:00N 22°20' E 114°08'0 0.1
2017-Dec-03 07:06N 22°20' E 114°08'0 0.2
2017-Dec-03 07:00N 22°20' E 114°08'317 8.2
2017-Dec-01 16:04N 22°28' E 119°51'218.0
2017-Dec-01 15:59N 22°28' E 119°53'817.8
2017-Dec-01 15:31N 22°31' E 120°02'917.5
2017-Dec-01 15:00N 22°33' E 120°11'714.8
2017-Dec-01 14:30N 22°33' E 120°19'1 2.0
2017-Dec-01 14:00N 22°33' E 120°20'0 0.3
2017-Dec-01 13:28N 22°33' E 120°20'0 0.0
2017-Dec-01 13:01N 22°33' E 120°20'0 0.0
2017-Dec-01 12:30N 22°33' E 120°20'0 0.0
2017-Dec-01 12:00N 22°33' E 120°20'0 0.0
2017-Dec-01 11:30N 22°33' E 120°20'0 0.0
2017-Dec-01 11:00N 22°33' E 120°20'0 0.0
2017-Dec-01 10:27N 22°33' E 120°20'0 0.0
2017-Dec-01 10:00N 22°33' E 120°20'0 0.0
2017-Dec-01 09:31N 22°33' E 120°20'0 0.0
2017-Dec-01 09:01N 22°33' E 120°20'0 0.0
2017-Dec-01 08:28N 22°33' E 120°20'0 0.0
2017-Dec-01 07:55N 22°33' E 120°20'0 0.0
2017-Dec-01 07:30N 22°33' E 120°20'0 0.0
2017-Dec-01 06:57N 22°33' E 120°20'0 0.0
2017-Dec-01 06:24N 22°33' E 120°20'0 0.0
2017-Dec-01 06:01N 22°33' E 120°20'0 0.0
2017-Dec-01 05:30N 22°33' E 120°20'0 0.0
2017-Dec-01 05:00N 22°33' E 120°20'0 0.0
2017-Dec-01 04:30N 22°33' E 120°20'0 0.0
2017-Dec-01 04:00N 22°33' E 120°20'0 0.0
2017-Dec-01 03:30N 22°33' E 120°20'0 0.0
2017-Dec-01 03:00N 22°33' E 120°20'0 0.0
2017-Dec-01 02:30N 22°33' E 120°20'0 0.0
2017-Dec-01 02:00N 22°33' E 120°20'0 0.0
2017-Dec-01 01:30N 22°33' E 120°20'0 0.0
2017-Dec-01 01:00N 22°33' E 120°20'0 0.0
2017-Dec-01 00:27N 22°33' E 120°20'0 0.0
2017-Dec-01 00:01N 22°33' E 120°20'0 0.0
2017-Nov-30 23:19N 22°33' E 120°20'0 1.1
2017-Nov-30 23:00N 22°33' E 120°19'3 5.9
2017-Nov-30 22:30N 22°33' E 120°16'4 7.9
2017-Nov-30 22:00N 22°31' E 120°12'3 6.0
2017-Nov-30 21:31N 22°34' E 120°10'917.7
2017-Nov-30 21:00N 22°42' E 120°06'1019.1
2017-Nov-30 20:30N 22°50' E 120°01'918.9
2017-Nov-30 20:00N 22°58' E 119°56'1020.1
2017-Nov-30 19:30N 23°08' E 119°55'1120.8
2017-Nov-30 19:00N 23°19' E 119°54'1121.5
2017-Nov-30 18:30N 23°29' E 119°54'1121.6
2017-Nov-30 18:01N 23°40' E 119°55'10120.2
2017-Nov-30 13:01N 25°07' E 120°51'017.3
2017-Nov-30 13:00N 25°07' E 120°51'1019.8
2017-Nov-30 12:30N 25°13' E 121°00'917.9
2017-Nov-30 12:00N 25°16' E 121°10'714.4
2017-Nov-30 11:30N 25°14' E 121°17'611.9
2017-Nov-30 11:00N 25°09' E 121°21'1 1.7
2017-Nov-30 10:08N 25°10' E 121°23'0 0.0
2017-Nov-30 06:41N 25°10' E 121°23'0 0.0
2017-Nov-30 06:23N 25°10' E 121°23'0 0.0
2017-Nov-30 05:41N 25°10' E 121°23'0 0.0
2017-Nov-30 05:29N 25°10' E 121°23'0 0.1
2017-Nov-30 04:53N 25°10' E 121°23'0 0.1
2017-Nov-30 04:20N 25°10' E 121°23'0 0.0
2017-Nov-30 03:59N 25°10' E 121°23'0 0.0
2017-Nov-30 03:29N 25°10' E 121°23'0 0.0
2017-Nov-30 02:59N 25°10' E 121°23'0 0.0
2017-Nov-30 02:29N 25°10' E 121°23'0 0.1
2017-Nov-30 01:56N 25°10' E 121°23'0 0.1
2017-Nov-30 01:23N 25°10' E 121°23'0 0.0
2017-Nov-30 00:59N 25°10' E 121°23'0 0.0
2017-Nov-30 00:29N 25°10' E 121°23'0 0.0
2017-Nov-29 23:53N 25°10' E 121°23'0 0.9
2017-Nov-29 23:30N 25°09' E 121°23'2 4.4
2017-Nov-29 23:00N 25°09' E 121°20'5 9.2
2017-Nov-29 22:30N 25°13' E 121°17'4 7.5
2017-Nov-29 22:00N 25°16' E 121°15'917.6
2017-Nov-29 21:29N 25°23' E 121°21'68119.9
2017-Nov-28 11:19N 34°07' E 129°43'718.3
2017-Nov-28 10:57N 34°11' E 129°49'818.9
2017-Nov-28 10:30N 34°16' E 129°57'919.1
2017-Nov-28 10:00N 34°22' E 130°06'1019.2
2017-Nov-28 09:31N 34°28' E 130°15'1019.2
2017-Nov-28 09:00N 34°35' E 130°24'1018.9
2017-Nov-28 08:29N 34°41' E 130°33'919.3
2017-Nov-28 08:00N 34°48' E 130°41'59519.7
2017-Nov-27 01:54N 41°18' E 140°11'  

Dump ship's entire track history